createdAt,value
2018-12-24T00:00:39.052Z,7.60
2018-12-24T00:03:07.868Z,10.87
2018-12-24T00:05:36.719Z,12.73
2018-12-24T00:08:05.482Z,12.83
2018-12-24T00:10:34.346Z,12.30
2018-12-24T00:13:03.112Z,13.23
2018-12-24T00:15:32.073Z,13.60
2018-12-24T00:18:00.714Z,12.67
2018-12-24T00:20:29.484Z,13.57
2018-12-24T00:22:58.149Z,13.60
2018-12-24T00:25:26.740Z,14.23
2018-12-24T00:27:55.558Z,14.57
2018-12-24T00:30:24.218Z,14.13
2018-12-24T00:32:52.880Z,14.50
2018-12-24T00:35:21.532Z,13.20
2018-12-24T00:37:50.301Z,15.17
2018-12-24T00:40:20.095Z,14.83
2018-12-24T00:42:48.730Z,15.30
2018-12-24T00:45:17.456Z,15.33
2018-12-24T00:47:46.328Z,15.00
2018-12-24T00:50:15.078Z,15.17
2018-12-24T00:52:43.857Z,15.70
2018-12-24T00:55:12.569Z,14.87
2018-12-24T00:57:41.464Z,14.37
2018-12-24T01:00:10.144Z,12.57
2018-12-24T01:02:38.927Z,12.77
2018-12-24T01:05:07.587Z,12.83
2018-12-24T01:07:36.361Z,13.17
2018-12-24T01:10:06.012Z,14.53
2018-12-24T01:12:34.647Z,10.90
2018-12-24T01:15:03.358Z,13.23
2018-12-24T01:17:32.144Z,13.37
2018-12-24T01:20:00.812Z,13.67
2018-12-24T01:22:29.676Z,15.47
2018-12-24T01:24:58.385Z,12.97
2018-12-24T01:27:26.992Z,14.63
2018-12-24T01:29:55.661Z,12.70
2018-12-24T01:32:24.317Z,12.73
2018-12-24T01:34:53.134Z,11.97
2018-12-24T01:37:21.800Z,12.00
2018-12-24T01:39:50.722Z,10.67
2018-12-24T01:42:19.520Z,8.47
2018-12-24T01:44:48.139Z,9.13
2018-12-24T01:47:17.333Z,7.70
2018-12-24T01:49:46.132Z,9.40
2018-12-24T01:52:14.903Z,6.33
2018-12-24T01:54:43.563Z,7.47
2018-12-24T01:57:12.168Z,5.70
2018-12-24T01:59:40.817Z,4.53
2018-12-24T02:02:09.650Z,4.53
2018-12-24T02:04:38.329Z,7.57
2018-12-24T02:07:06.967Z,4.93
2018-12-24T02:09:35.636Z,6.50
2018-12-24T02:12:04.334Z,5.77
2018-12-24T02:14:32.981Z,7.07
2018-12-24T02:17:01.642Z,6.07
2018-12-24T02:19:30.482Z,6.40
2018-12-24T02:21:59.256Z,7.23
2018-12-24T02:24:27.989Z,7.73
2018-12-24T02:26:56.817Z,9.20
2018-12-24T02:29:25.586Z,9.77
2018-12-24T02:31:54.308Z,10.20
2018-12-24T02:34:23.181Z,10.50
2018-12-24T02:36:51.786Z,11.23
2018-12-24T02:39:20.624Z,8.83
2018-12-24T02:41:49.243Z,9.43
2018-12-24T02:44:19.032Z,11.07
2018-12-24T02:46:48.376Z,9.70
2018-12-24T02:49:17.060Z,11.60
2018-12-24T02:51:45.840Z,10.37
2018-12-24T02:54:14.629Z,11.30
2018-12-24T02:56:43.396Z,12.10
2018-12-24T02:59:12.038Z,12.67
2018-12-24T03:01:40.866Z,11.60
2018-12-24T03:04:09.953Z,12.33
2018-12-24T03:06:38.894Z,10.80
2018-12-24T03:09:07.641Z,12.23
2018-12-24T03:11:36.392Z,11.47
2018-12-24T03:14:05.108Z,16.70
2018-12-24T03:16:34.000Z,13.50
2018-12-24T03:19:02.658Z,16.70
2018-12-24T03:21:31.328Z,15.37
2018-12-24T03:24:00.033Z,18.80
2018-12-24T03:26:28.792Z,20.07
2018-12-24T03:28:57.530Z,19.53
2018-12-24T03:31:26.297Z,21.70
2018-12-24T03:33:55.016Z,20.40
2018-12-24T03:36:23.715Z,21.03
2018-12-24T03:38:52.423Z,21.63
2018-12-24T03:41:21.178Z,18.17
2018-12-24T03:43:49.868Z,19.87
2018-12-24T03:46:18.696Z,17.53
2018-12-24T03:48:47.356Z,21.37
2018-12-24T03:51:16.278Z,17.43
2018-12-24T03:53:44.954Z,16.23
2018-12-24T03:56:13.803Z,16.97
2018-12-24T03:58:42.671Z,16.57
2018-12-24T04:01:11.488Z,14.43
2018-12-24T04:03:40.222Z,15.07
2018-12-24T04:06:09.063Z,13.50
2018-12-24T04:08:37.828Z,14.37
2018-12-24T04:11:06.490Z,11.20
2018-12-24T04:13:35.236Z,13.30
2018-12-24T04:16:04.048Z,10.03
2018-12-24T04:18:32.957Z,9.53
2018-12-24T04:21:01.660Z,9.23
2018-12-24T04:23:30.532Z,10.13
2018-12-24T04:25:59.324Z,10.13
2018-12-24T04:28:28.061Z,8.33
2018-12-24T04:30:56.689Z,13.67
2018-12-24T04:33:25.589Z,12.93
2018-12-24T04:35:54.388Z,10.27
2018-12-24T04:38:23.044Z,10.97
2018-12-24T04:40:51.834Z,8.97
2018-12-24T04:43:20.453Z,9.30
2018-12-24T04:45:49.379Z,10.17
2018-12-24T04:48:18.103Z,12.93
2018-12-24T04:50:46.759Z,10.33
2018-12-24T04:53:15.372Z,12.37
2018-12-24T04:55:44.049Z,12.97
2018-12-24T04:58:12.649Z,10.57
2018-12-24T05:00:41.446Z,10.03
2018-12-24T05:03:10.110Z,9.77
2018-12-24T05:05:39.013Z,9.43
2018-12-24T05:08:07.658Z,11.43
2018-12-24T05:10:36.423Z,10.80
2018-12-24T05:13:05.150Z,13.13
2018-12-24T05:15:33.922Z,10.20
2018-12-24T05:18:02.687Z,10.50
2018-12-24T05:20:31.475Z,13.17
2018-12-24T05:23:00.189Z,13.57
2018-12-24T05:25:28.948Z,12.20
2018-12-24T05:27:57.921Z,12.60
2018-12-24T05:30:26.735Z,10.53
2018-12-24T05:32:55.343Z,11.10
2018-12-24T05:35:24.241Z,10.17
2018-12-24T05:37:52.837Z,10.90
2018-12-24T05:40:21.557Z,8.70
2018-12-24T05:42:50.178Z,10.17
2018-12-24T05:45:19.019Z,9.43
2018-12-24T05:47:47.729Z,9.83
2018-12-24T05:50:16.383Z,9.03
2018-12-24T05:52:44.998Z,10.13
2018-12-24T05:55:15.441Z,8.20
2018-12-24T05:57:44.067Z,11.27
2018-12-24T06:00:12.880Z,8.50
2018-12-24T06:02:41.567Z,8.30
2018-12-24T06:05:10.351Z,8.40
2018-12-24T06:07:38.997Z,8.60
2018-12-24T06:10:07.846Z,8.43
2018-12-24T06:12:36.477Z,10.83
2018-12-24T06:15:05.985Z,9.30
2018-12-24T06:17:34.637Z,9.27
2018-12-24T06:20:03.454Z,7.27
2018-12-24T06:22:32.079Z,6.77
2018-12-24T06:25:00.831Z,8.00
2018-12-24T06:27:29.567Z,8.57
2018-12-24T06:29:58.320Z,9.27
2018-12-24T06:32:26.990Z,9.40
2018-12-24T06:34:55.934Z,9.43
2018-12-24T06:37:24.887Z,9.23
2018-12-24T06:39:53.663Z,7.40
2018-12-24T06:42:22.706Z,8.10
2018-12-24T06:44:51.557Z,9.03
2018-12-24T06:47:20.459Z,9.10
2018-12-24T06:49:49.658Z,7.80
2018-12-24T06:52:18.252Z,6.63
2018-12-24T06:54:47.013Z,11.37
2018-12-24T06:57:15.582Z,7.87
2018-12-24T06:59:44.324Z,8.23
2018-12-24T07:02:12.969Z,8.30
2018-12-24T07:04:41.752Z,8.10
2018-12-24T07:07:10.386Z,10.13
2018-12-24T07:09:39.107Z,6.97
2018-12-24T07:12:07.780Z,12.00
2018-12-24T07:14:36.539Z,9.33
2018-12-24T07:17:05.281Z,8.10
2018-12-24T07:19:34.205Z,10.53
2018-12-24T07:22:02.916Z,9.33
2018-12-24T07:24:31.561Z,8.20
2018-12-24T07:27:00.493Z,8.37
2018-12-24T07:29:29.276Z,9.90
2018-12-24T07:31:57.893Z,11.43
2018-12-24T07:34:32.295Z,8.00
2018-12-24T07:36:57.379Z,11.13
2018-12-24T07:39:26.417Z,8.23
2018-12-24T07:41:55.239Z,9.97
2018-12-24T07:44:24.554Z,8.90
2018-12-24T07:46:53.521Z,8.97
2018-12-24T07:49:22.170Z,9.50
2018-12-24T07:51:51.552Z,11.80
2018-12-24T07:54:20.506Z,11.90
2018-12-24T07:56:49.606Z,11.27
2018-12-24T07:59:18.499Z,10.03
2018-12-24T08:01:47.578Z,9.53
2018-12-24T08:04:16.385Z,8.77
2018-12-24T08:06:45.357Z,10.27
2018-12-24T08:09:14.390Z,9.30
2018-12-24T08:11:43.585Z,9.53
2018-12-24T08:14:12.645Z,11.07
2018-12-24T08:16:41.582Z,10.17
2018-12-24T08:19:10.364Z,8.57
2018-12-24T08:21:39.158Z,8.93
2018-12-24T08:24:07.921Z,10.37
2018-12-24T08:26:36.726Z,9.73
2018-12-24T08:29:05.504Z,9.37
2018-12-24T08:31:34.943Z,12.37
2018-12-24T08:34:04.945Z,9.07
2018-12-24T08:36:33.816Z,10.07
2018-12-24T08:39:03.639Z,12.00
2018-12-24T08:41:32.465Z,11.93
2018-12-24T08:44:01.106Z,12.80
2018-12-24T08:46:29.784Z,10.87
2018-12-24T08:48:58.618Z,11.30
2018-12-24T08:51:27.447Z,12.57
2018-12-24T08:53:56.338Z,11.50
2018-12-24T08:56:25.033Z,13.77
2018-12-24T08:58:53.860Z,11.63
2018-12-24T09:01:22.796Z,14.97
2018-12-24T09:03:51.865Z,11.73
2018-12-24T09:06:20.565Z,14.00
2018-12-24T09:08:49.363Z,11.40
2018-12-24T09:11:18.027Z,15.03
2018-12-24T09:13:46.765Z,13.07
2018-12-24T09:16:15.465Z,13.00
2018-12-24T09:18:44.192Z,15.83
2018-12-24T09:21:13.163Z,13.90
2018-12-24T09:23:41.912Z,16.17
2018-12-24T09:26:10.617Z,13.50
2018-12-24T09:28:39.427Z,13.33
2018-12-24T09:31:09.848Z,15.77
2018-12-24T09:33:38.532Z,17.93
2018-12-24T09:36:07.289Z,15.20
2018-12-24T09:38:36.142Z,14.03
2018-12-24T09:41:04.897Z,12.07
2018-12-24T09:43:34.030Z,13.23
2018-12-24T09:46:02.727Z,12.93
2018-12-24T09:48:31.485Z,13.00
2018-12-24T09:51:00.152Z,14.27
2018-12-24T09:53:28.939Z,12.40
2018-12-24T09:55:57.755Z,12.33
2018-12-24T09:58:26.569Z,13.53
2018-12-24T10:00:55.265Z,12.37
2018-12-24T10:03:36.521Z,13.55
2018-12-24T10:06:11.200Z,10.90
2018-12-24T10:08:40.237Z,13.20
2018-12-24T10:11:09.221Z,12.97
2018-12-24T10:13:38.132Z,14.07
2018-12-24T10:16:06.837Z,12.67
2018-12-24T10:18:35.503Z,10.73
2018-12-24T10:21:04.347Z,12.17
2018-12-24T10:23:33.111Z,12.40
2018-12-24T10:26:01.776Z,10.03
2018-12-24T10:28:30.463Z,9.33
2018-12-24T10:30:59.156Z,11.47
2018-12-24T10:33:28.043Z,12.07
2018-12-24T10:35:56.684Z,10.70
2018-12-24T10:38:25.340Z,11.07
2018-12-24T10:41:17.604Z,10.27
2018-12-24T10:43:46.416Z,9.50
2018-12-24T10:46:15.199Z,9.20
2018-12-24T10:48:43.823Z,9.77
2018-12-24T10:51:12.806Z,11.27
2018-12-24T10:53:41.518Z,9.00
2018-12-24T10:56:10.304Z,9.37
2018-12-24T10:58:38.969Z,11.83
2018-12-24T11:01:07.683Z,10.90
2018-12-24T11:03:36.460Z,9.37
2018-12-24T11:06:05.068Z,12.57
2018-12-24T11:08:33.834Z,10.07
2018-12-24T11:11:02.849Z,11.17
2018-12-24T11:13:31.647Z,9.43
2018-12-24T11:16:41.612Z,9.43
2018-12-24T11:19:09.691Z,11.30
2018-12-24T11:21:38.249Z,9.20
2018-12-24T11:24:06.648Z,8.67
2018-12-24T11:26:34.842Z,9.30
2018-12-24T11:29:03.149Z,8.47
2018-12-24T11:31:31.331Z,9.43
2018-12-24T11:33:59.496Z,8.17
2018-12-24T11:36:27.581Z,8.73
2018-12-24T11:38:55.674Z,7.77
2018-12-24T11:41:23.729Z,8.80
2018-12-24T11:43:51.918Z,7.57
2018-12-24T11:46:20.047Z,8.63
2018-12-24T11:48:48.141Z,7.50
2018-12-24T11:51:16.250Z,8.67
2018-12-24T11:53:44.409Z,8.60
2018-12-24T11:56:12.556Z,8.83
2018-12-24T11:58:40.991Z,9.87
2018-12-24T12:01:09.122Z,7.97
2018-12-24T12:03:37.240Z,10.03
2018-12-24T12:06:05.562Z,7.60
2018-12-24T12:08:33.734Z,7.93
2018-12-24T12:11:09.951Z,9.77
2018-12-24T12:13:38.296Z,7.97
2018-12-24T12:16:06.344Z,7.20
2018-12-24T12:18:34.415Z,8.30
2018-12-24T12:21:02.709Z,8.03
2018-12-24T12:23:30.897Z,6.33
2018-12-24T12:25:59.194Z,8.00
2018-12-24T12:28:27.447Z,6.67
2018-12-24T12:30:55.510Z,6.47
2018-12-24T12:33:23.567Z,7.47
2018-12-24T12:35:51.673Z,5.30
2018-12-24T12:38:19.911Z,5.77
2018-12-24T12:40:48.179Z,6.40
2018-12-24T12:43:17.438Z,6.80
2018-12-24T12:45:51.160Z,4.57
2018-12-24T12:48:15.781Z,6.97
2018-12-24T12:50:44.022Z,6.57
2018-12-24T12:53:12.427Z,5.57
2018-12-24T12:55:40.517Z,8.17
2018-12-24T12:58:08.659Z,5.30
2018-12-24T13:00:38.168Z,5.23
2018-12-24T13:03:07.883Z,4.93
2018-12-24T13:05:36.119Z,5.77
2018-12-24T13:08:05.734Z,5.97
2018-12-24T13:10:34.077Z,5.33
2018-12-24T13:13:02.138Z,5.43
2018-12-24T13:15:30.281Z,5.30
2018-12-24T13:17:58.566Z,7.77
2018-12-24T13:20:26.782Z,6.73
2018-12-24T13:22:55.013Z,5.00
2018-12-24T13:25:23.044Z,8.20
2018-12-24T13:27:51.235Z,6.03
2018-12-24T13:30:19.420Z,5.83
2018-12-24T13:32:48.697Z,5.33
2018-12-24T13:35:16.856Z,6.27
2018-12-24T13:37:45.506Z,5.47
2018-12-24T13:40:13.899Z,5.03
2018-12-24T13:42:42.246Z,7.67
2018-12-24T13:45:10.487Z,6.47
2018-12-24T13:47:38.651Z,6.23
2018-12-24T13:50:06.770Z,4.83
2018-12-24T13:52:35.097Z,10.83
2018-12-24T13:55:03.349Z,8.80
2018-12-24T13:57:31.434Z,7.00
2018-12-24T13:59:59.479Z,7.63
2018-12-24T14:02:27.539Z,7.67
2018-12-24T14:04:55.823Z,7.83
2018-12-24T14:07:24.140Z,8.23
2018-12-24T14:09:52.180Z,8.40
2018-12-24T14:12:20.221Z,7.70
2018-12-24T14:14:48.536Z,6.90
2018-12-24T14:17:16.641Z,7.47
2018-12-24T14:19:44.735Z,10.53
2018-12-24T14:22:12.816Z,8.97
2018-12-24T14:24:40.948Z,10.27
2018-12-24T14:27:09.018Z,10.33
2018-12-24T14:29:40.048Z,9.33
2018-12-24T14:32:08.211Z,8.53
2018-12-24T14:34:36.442Z,8.37
2018-12-24T14:37:04.495Z,10.57
2018-12-24T14:39:32.681Z,8.93
2018-12-24T14:42:00.849Z,8.57
2018-12-24T14:44:29.046Z,9.83
2018-12-24T14:46:57.419Z,11.93
2018-12-24T14:49:25.637Z,10.07
2018-12-24T14:51:53.822Z,8.63
2018-12-24T14:54:23.010Z,11.43
2018-12-24T14:56:51.138Z,10.57
2018-12-24T14:59:19.708Z,10.53
2018-12-24T15:01:47.982Z,10.23
2018-12-24T15:04:16.596Z,10.67
2018-12-24T15:06:45.397Z,10.60
2018-12-24T15:09:13.482Z,10.90
2018-12-24T15:11:41.692Z,10.00
2018-12-24T15:14:11.523Z,11.53
2018-12-24T15:16:41.103Z,10.27
2018-12-24T15:19:09.401Z,12.37
2018-12-24T15:21:37.636Z,11.13
2018-12-24T15:24:05.816Z,10.23
2018-12-24T15:26:33.908Z,11.03
2018-12-24T15:29:01.969Z,10.63
2018-12-24T15:31:30.173Z,12.57
2018-12-24T15:33:58.528Z,8.90
2018-12-24T15:36:26.648Z,10.73
2018-12-24T15:38:54.934Z,9.93
2018-12-24T15:41:27.152Z,12.97
2018-12-24T15:43:56.798Z,10.43
2018-12-24T15:46:27.335Z,11.63
2018-12-24T15:48:57.279Z,12.47
2018-12-24T15:51:28.849Z,10.83
2018-12-24T15:53:58.407Z,11.83
2018-12-24T15:56:34.581Z,10.80
2018-12-24T15:59:05.648Z,11.97
2018-12-24T16:01:34.137Z,11.23
2018-12-24T16:04:02.825Z,12.70
2018-12-24T16:06:31.154Z,11.30
2018-12-24T16:09:01.079Z,13.90
2018-12-24T16:11:29.657Z,9.23
2018-12-24T16:13:59.163Z,10.33
2018-12-24T16:16:27.760Z,11.27
2018-12-24T16:18:56.264Z,11.47
2018-12-24T16:21:25.166Z,12.20
2018-12-24T16:23:53.339Z,13.37
2018-12-24T16:26:22.387Z,12.80
2018-12-24T16:28:51.465Z,12.93
2018-12-24T16:31:20.344Z,13.00
2018-12-24T16:33:48.564Z,12.47
2018-12-24T16:36:16.858Z,14.73
2018-12-24T16:38:45.235Z,11.70
2018-12-24T16:41:13.273Z,11.67
2018-12-24T16:43:41.418Z,10.83
2018-12-24T16:46:09.682Z,13.53
2018-12-24T16:51:19.144Z,14.17
2018-12-24T16:53:47.194Z,14.47
2018-12-24T16:56:16.634Z,11.60
2018-12-24T16:58:44.988Z,14.07
2018-12-24T17:01:22.399Z,12.30
2018-12-24T17:04:14.165Z,18.10
2018-12-24T17:06:51.545Z,15.03
2018-12-24T17:09:22.775Z,12.70
2018-12-24T17:11:52.509Z,16.33
2018-12-24T17:14:21.395Z,11.93
2018-12-24T17:16:54.179Z,17.77
2018-12-24T17:19:26.487Z,14.53
2018-12-24T17:21:58.801Z,14.53
2018-12-24T17:24:27.543Z,15.93
2018-12-24T17:26:56.234Z,13.83
2018-12-24T17:29:24.375Z,14.63
2018-12-24T17:31:52.513Z,12.73
2018-12-24T17:34:21.887Z,12.70
2018-12-24T17:36:50.006Z,13.43
2018-12-24T17:39:18.137Z,14.63
2018-12-24T17:41:46.466Z,11.17
2018-12-24T17:44:14.731Z,15.57
2018-12-24T17:46:42.974Z,16.40
2018-12-24T17:49:11.014Z,13.30
2018-12-24T17:51:39.784Z,16.07
2018-12-24T17:54:08.001Z,15.53
2018-12-24T17:56:36.101Z,13.00
2018-12-24T17:59:04.294Z,26.93
2018-12-24T18:01:33.651Z,15.13
2018-12-24T18:04:05.797Z,18.57
2018-12-24T18:06:33.998Z,15.33
2018-12-24T18:09:04.016Z,12.67
2018-12-24T18:11:32.053Z,16.07
2018-12-24T18:14:00.204Z,18.30
2018-12-24T18:16:28.706Z,15.70
2018-12-24T18:18:56.950Z,13.40
2018-12-24T18:21:25.242Z,13.87
2018-12-24T18:23:53.626Z,19.00
2018-12-24T18:26:21.743Z,18.30
2018-12-24T18:28:50.014Z,13.73
2018-12-24T18:31:20.008Z,17.33
2018-12-24T18:33:48.517Z,12.57
2018-12-24T18:36:17.017Z,22.07
2018-12-24T18:38:45.150Z,19.70
2018-12-24T18:41:13.615Z,16.10
2018-12-24T18:43:41.792Z,15.43
2018-12-24T18:46:10.375Z,16.40
2018-12-24T18:48:38.538Z,16.03
2018-12-24T18:51:06.781Z,14.40
2018-12-24T18:53:35.032Z,17.00
2018-12-24T18:56:03.304Z,15.73
2018-12-24T18:58:31.418Z,12.90
2018-12-24T19:00:59.878Z,17.23
2018-12-24T19:03:27.914Z,15.70
2018-12-24T19:05:57.268Z,17.63
2018-12-24T19:08:25.722Z,9.80
2018-12-24T19:10:53.849Z,22.03
2018-12-24T19:13:22.144Z,14.70
2018-12-24T19:15:50.321Z,12.10
2018-12-24T19:18:18.392Z,14.13
2018-12-24T19:20:46.487Z,12.33
2018-12-24T19:23:14.502Z,16.30
2018-12-24T19:25:42.807Z,11.63
2018-12-24T19:28:10.930Z,17.13
2018-12-24T19:30:38.994Z,14.17
2018-12-24T19:33:07.305Z,14.57
2018-12-24T19:35:40.123Z,12.47
2018-12-24T19:38:09.144Z,18.33
2018-12-24T19:40:37.192Z,16.37
2018-12-24T19:43:05.577Z,21.53
2018-12-24T19:45:33.876Z,14.93
2018-12-24T19:48:02.567Z,16.00
2018-12-24T19:50:30.955Z,12.97
2018-12-24T19:52:59.023Z,20.20
2018-12-24T19:55:27.166Z,11.83
2018-12-24T19:57:55.372Z,19.40
2018-12-24T20:00:26.277Z,13.90
2018-12-24T20:02:54.740Z,15.73
2018-12-24T20:05:22.915Z,18.37
2018-12-24T20:07:51.135Z,15.13
2018-12-24T20:10:19.246Z,14.73
2018-12-24T20:12:47.433Z,16.47
2018-12-24T20:15:15.729Z,13.20
2018-12-24T20:17:43.814Z,10.73
2018-12-24T20:20:11.960Z,11.47
2018-12-24T20:22:40.279Z,17.77
2018-12-24T20:25:08.727Z,13.07
2018-12-24T20:27:36.846Z,12.90
2018-12-24T20:30:05.640Z,16.67
2018-12-24T20:32:33.749Z,14.23
2018-12-24T20:35:02.123Z,14.60
2018-12-24T20:37:31.884Z,11.37
2018-12-24T20:40:00.009Z,11.63
2018-12-24T20:42:28.409Z,12.50
2018-12-24T20:44:56.567Z,10.67
2018-12-24T20:47:24.914Z,10.90
2018-12-24T20:49:53.200Z,11.17
2018-12-24T20:52:21.578Z,12.13
2018-12-24T20:54:49.698Z,14.20
2018-12-24T20:57:17.783Z,10.37
2018-12-24T20:59:46.032Z,7.87
2018-12-24T21:02:14.390Z,13.87
2018-12-24T21:04:42.532Z,15.60
2018-12-24T21:07:10.884Z,12.23
2018-12-24T21:09:39.159Z,14.73
2018-12-24T21:12:07.558Z,8.13
2018-12-24T21:14:35.792Z,13.93
2018-12-24T21:17:03.914Z,12.90
2018-12-24T21:19:32.091Z,11.17
2018-12-24T21:22:00.138Z,9.70
2018-12-24T21:24:28.347Z,10.50
2018-12-24T21:26:56.534Z,10.47
2018-12-24T21:29:24.685Z,11.13
2018-12-24T21:31:53.205Z,16.27
2018-12-24T21:34:21.389Z,12.60
2018-12-24T21:36:49.611Z,9.20
2018-12-24T21:39:17.643Z,13.50
2018-12-24T21:41:45.839Z,6.60
2018-12-24T21:44:13.996Z,9.77
2018-12-24T21:46:43.456Z,11.50
2018-12-24T21:49:11.759Z,12.83
2018-12-24T21:51:39.849Z,7.40
2018-12-24T21:54:07.941Z,17.77
2018-12-24T21:56:36.057Z,6.33
2018-12-24T21:59:04.619Z,13.47
2018-12-24T22:01:32.938Z,8.93
2018-12-24T22:04:01.482Z,8.77
2018-12-24T22:06:29.619Z,9.60
2018-12-24T22:08:57.894Z,8.27
2018-12-24T22:11:26.415Z,8.53
2018-12-24T22:13:54.757Z,13.30
2018-12-24T22:16:23.024Z,12.20
2018-12-24T22:18:51.303Z,11.97
2018-12-24T22:21:19.450Z,10.33
2018-12-24T22:23:47.701Z,9.43
2018-12-24T22:26:16.276Z,14.20
2018-12-24T22:28:44.496Z,10.30
2018-12-24T22:31:12.650Z,8.50
2018-12-24T22:33:40.829Z,8.20
2018-12-24T22:36:09.041Z,12.70
2018-12-24T22:38:37.198Z,8.73
2018-12-24T22:41:05.700Z,10.57
2018-12-24T22:43:33.778Z,12.93
2018-12-24T22:46:02.051Z,11.47
2018-12-24T22:48:31.180Z,13.70
2018-12-24T22:50:59.556Z,11.70
2018-12-24T22:53:27.643Z,9.23
2018-12-24T22:55:56.078Z,8.83
2018-12-24T22:58:24.185Z,7.93
2018-12-24T23:00:52.951Z,8.50
2018-12-24T23:03:21.055Z,12.03
2018-12-24T23:05:49.107Z,11.60
2018-12-24T23:08:17.281Z,4.63
2018-12-24T23:10:45.537Z,11.00
2018-12-24T23:13:13.856Z,13.77
2018-12-24T23:15:42.097Z,11.37
2018-12-24T23:18:10.374Z,6.97
2018-12-24T23:20:38.613Z,9.77
2018-12-24T23:23:06.823Z,9.93
2018-12-24T23:25:35.047Z,10.73
2018-12-24T23:28:03.147Z,11.80
2018-12-24T23:30:31.304Z,8.23
2018-12-24T23:32:59.374Z,8.33
2018-12-24T23:35:27.798Z,9.00
2018-12-24T23:37:56.324Z,8.93
2018-12-24T23:40:24.798Z,12.07
2018-12-24T23:42:53.137Z,9.30
2018-12-24T23:45:21.362Z,7.13
2018-12-24T23:47:49.560Z,11.93
2018-12-24T23:50:17.761Z,11.73
2018-12-24T23:52:46.890Z,11.80
2018-12-24T23:55:15.215Z,7.77
2018-12-24T23:57:43.288Z,9.03
